sensor_id;sensor_type;location;lat;lon;timestamp;P1;durP1;ratioP1;P2;durP2;ratioP2
21729;SDS011;11027;51.030;13.812;2023-04-15T00:02:19;2.65;;;2.45;;
21729;SDS011;11027;51.030;13.812;2023-04-15T00:04:45;2.65;;;2.45;;
21729;SDS011;11027;51.030;13.812;2023-04-15T00:07:11;2.67;;;2.47;;
21729;SDS011;11027;51.030;13.812;2023-04-15T00:09:36;2.58;;;2.38;;
21729;SDS011;11027;51.030;13.812;2023-04-15T00:12:02;2.10;;;1.98;;
21729;SDS011;11027;51.030;13.812;2023-04-15T00:14:27;2.22;;;2.03;;
21729;SDS011;11027;51.030;13.812;2023-04-15T00:16:53;3.50;;;2.05;;
21729;SDS011;11027;51.030;13.812;2023-04-15T00:19:20;2.00;;;1.90;;
21729;SDS011;11027;51.030;13.812;2023-04-15T00:21:45;2.25;;;2.15;;
21729;SDS011;11027;51.030;13.812;2023-04-15T00:24:11;2.50;;;2.30;;
21729;SDS011;11027;51.030;13.812;2023-04-15T00:26:37;2.40;;;2.20;;
21729;SDS011;11027;51.030;13.812;2023-04-15T00:29:03;1.88;;;1.77;;
21729;SDS011;11027;51.030;13.812;2023-04-15T00:31:29;1.80;;;1.70;;
21729;SDS011;11027;51.030;13.812;2023-04-15T00:33:55;1.80;;;1.70;;
21729;SDS011;11027;51.030;13.812;2023-04-15T00:36:20;1.88;;;1.77;;
21729;SDS011;11027;51.030;13.812;2023-04-15T00:38:46;2.03;;;1.92;;
21729;SDS011;11027;51.030;13.812;2023-04-15T00:41:12;1.65;;;1.55;;
21729;SDS011;11027;51.030;13.812;2023-04-15T00:43:37;1.45;;;1.35;;
21729;SDS011;11027;51.030;13.812;2023-04-15T00:46:03;1.60;;;1.50;;
21729;SDS011;11027;51.030;13.812;2023-04-15T00:48:29;1.77;;;1.67;;
21729;SDS011;11027;51.030;13.812;2023-04-15T00:50:56;1.83;;;1.73;;
21729;SDS011;11027;51.030;13.812;2023-04-15T00:53:21;3.65;;;1.60;;
21729;SDS011;11027;51.030;13.812;2023-04-15T00:55:47;1.77;;;1.67;;
21729;SDS011;11027;51.030;13.812;2023-04-15T00:58:12;1.70;;;1.60;;
21729;SDS011;11027;51.030;13.812;2023-04-15T01:00:38;1.70;;;1.60;;
21729;SDS011;11027;51.030;13.812;2023-04-15T01:03:04;1.75;;;1.65;;
21729;SDS011;11027;51.030;13.812;2023-04-15T01:05:30;2.20;;;2.10;;
21729;SDS011;11027;51.030;13.812;2023-04-15T01:07:55;2.05;;;1.85;;
21729;SDS011;11027;51.030;13.812;2023-04-15T01:10:21;1.90;;;1.80;;
21729;SDS011;11027;51.030;13.812;2023-04-15T01:12:46;2.05;;;1.95;;
21729;SDS011;11027;51.030;13.812;2023-04-15T01:15:12;1.92;;;1.83;;
21729;SDS011;11027;51.030;13.812;2023-04-15T01:17:37;2.10;;;2.00;;
21729;SDS011;11027;51.030;13.812;2023-04-15T01:20:03;2.00;;;1.90;;
21729;SDS011;11027;51.030;13.812;2023-04-15T01:22:29;2.03;;;1.92;;
21729;SDS011;11027;51.030;13.812;2023-04-15T01:25:00;3.55;;;1.90;;
21729;SDS011;11027;51.030;13.812;2023-04-15T01:27:32;2.05;;;1.90;;
21729;SDS011;11027;51.030;13.812;2023-04-15T01:29:59;2.38;;;2.20;;
21729;SDS011;11027;51.030;13.812;2023-04-15T01:32:24;2.53;;;2.10;;
21729;SDS011;11027;51.030;13.812;2023-04-15T01:34:49;2.05;;;1.95;;
21729;SDS011;11027;51.030;13.812;2023-04-15T01:37:15;2.50;;;2.30;;
21729;SDS011;11027;51.030;13.812;2023-04-15T01:39:40;2.30;;;2.15;;
21729;SDS011;11027;51.030;13.812;2023-04-15T01:42:06;2.25;;;2.10;;
21729;SDS011;11027;51.030;13.812;2023-04-15T01:44:31;2.30;;;2.20;;
21729;SDS011;11027;51.030;13.812;2023-04-15T01:46:56;1.85;;;1.75;;
21729;SDS011;11027;51.030;13.812;2023-04-15T01:49:22;2.50;;;2.30;;
21729;SDS011;11027;51.030;13.812;2023-04-15T01:51:47;2.75;;;2.55;;
21729;SDS011;11027;51.030;13.812;2023-04-15T01:54:13;2.83;;;2.63;;
21729;SDS011;11027;51.030;13.812;2023-04-15T01:56:38;2.50;;;2.30;;
21729;SDS011;11027;51.030;13.812;2023-04-15T01:59:03;2.40;;;2.20;;
21729;SDS011;11027;51.030;13.812;2023-04-15T02:01:29;2.33;;;2.17;;
21729;SDS011;11027;51.030;13.812;2023-04-15T02:03:54;2.33;;;2.13;;
21729;SDS011;11027;51.030;13.812;2023-04-15T02:06:19;2.83;;;2.63;;
21729;SDS011;11027;51.030;13.812;2023-04-15T02:08:44;2.70;;;2.50;;
21729;SDS011;11027;51.030;13.812;2023-04-15T02:11:10;2.85;;;2.55;;
21729;SDS011;11027;51.030;13.812;2023-04-15T02:13:35;2.78;;;2.58;;
21729;SDS011;11027;51.030;13.812;2023-04-15T02:16:01;2.50;;;2.40;;
21729;SDS011;11027;51.030;13.812;2023-04-15T02:18:27;3.05;;;2.85;;
21729;SDS011;11027;51.030;13.812;2023-04-15T02:20:52;2.47;;;2.30;;
21729;SDS011;11027;51.030;13.812;2023-04-15T02:23:17;2.72;;;2.53;;
21729;SDS011;11027;51.030;13.812;2023-04-15T02:25:43;2.47;;;2.28;;
21729;SDS011;11027;51.030;13.812;2023-04-15T02:28:08;2.63;;;2.42;;
21729;SDS011;11027;51.030;13.812;2023-04-15T02:30:33;3.22;;;2.92;;
21729;SDS011;11027;51.030;13.812;2023-04-15T02:32:59;2.83;;;2.63;;
21729;SDS011;11027;51.030;13.812;2023-04-15T02:35:25;3.05;;;2.78;;
21729;SDS011;11027;51.030;13.812;2023-04-15T02:37:50;2.50;;;2.30;;
21729;SDS011;11027;51.030;13.812;2023-04-15T02:40:16;2.80;;;2.60;;
21729;SDS011;11027;51.030;13.812;2023-04-15T02:42:42;3.00;;;2.70;;
21729;SDS011;11027;51.030;13.812;2023-04-15T02:45:08;2.80;;;2.60;;
21729;SDS011;11027;51.030;13.812;2023-04-15T02:47:34;3.22;;;3.03;;
21729;SDS011;11027;51.030;13.812;2023-04-15T02:50:01;2.90;;;2.70;;
21729;SDS011;11027;51.030;13.812;2023-04-15T02:52:27;3.20;;;3.00;;
21729;SDS011;11027;51.030;13.812;2023-04-15T02:54:53;2.90;;;2.70;;
21729;SDS011;11027;51.030;13.812;2023-04-15T02:57:21;6.95;;;2.85;;
21729;SDS011;11027;51.030;13.812;2023-04-15T02:59:47;3.10;;;2.80;;
21729;SDS011;11027;51.030;13.812;2023-04-15T03:02:12;3.53;;;3.22;;
21729;SDS011;11027;51.030;13.812;2023-04-15T03:04:37;2.88;;;2.67;;
21729;SDS011;11027;51.030;13.812;2023-04-15T03:07:03;2.80;;;2.60;;
21729;SDS011;11027;51.030;13.812;2023-04-15T03:09:29;3.00;;;2.80;;
21729;SDS011;11027;51.030;13.812;2023-04-15T03:11:54;2.60;;;2.40;;
21729;SDS011;11027;51.030;13.812;2023-04-15T03:14:20;2.70;;;2.50;;
21729;SDS011;11027;51.030;13.812;2023-04-15T03:16:46;2.83;;;2.63;;
21729;SDS011;11027;51.030;13.812;2023-04-15T03:19:11;3.45;;;2.80;;
21729;SDS011;11027;51.030;13.812;2023-04-15T03:21:36;3.00;;;2.80;;
21729;SDS011;11027;51.030;13.812;2023-04-15T03:24:02;3.20;;;3.00;;
21729;SDS011;11027;51.030;13.812;2023-04-15T03:26:28;3.20;;;2.90;;
21729;SDS011;11027;51.030;13.812;2023-04-15T03:28:55;3.10;;;2.50;;
21729;SDS011;11027;51.030;13.812;2023-04-15T03:31:21;3.25;;;3.05;;
21729;SDS011;11027;51.030;13.812;2023-04-15T03:33:46;3.22;;;3.00;;
21729;SDS011;11027;51.030;13.812;2023-04-15T03:36:11;3.30;;;3.10;;
21729;SDS011;11027;51.030;13.812;2023-04-15T03:38:37;3.17;;;2.88;;
21729;SDS011;11027;51.030;13.812;2023-04-15T03:41:02;3.42;;;3.13;;
21729;SDS011;11027;51.030;13.812;2023-04-15T03:43:27;3.15;;;2.95;;
21729;SDS011;11027;51.030;13.812;2023-04-15T03:45:52;2.80;;;2.60;;
21729;SDS011;11027;51.030;13.812;2023-04-15T03:48:18;3.15;;;2.90;;
21729;SDS011;11027;51.030;13.812;2023-04-15T03:50:43;3.08;;;2.88;;
21729;SDS011;11027;51.030;13.812;2023-04-15T03:53:08;2.90;;;2.70;;
21729;SDS011;11027;51.030;13.812;2023-04-15T03:55:33;3.42;;;3.22;;
21729;SDS011;11027;51.030;13.812;2023-04-15T03:57:59;3.80;;;3.50;;
21729;SDS011;11027;51.030;13.812;2023-04-15T04:00:24;3.75;;;3.45;;
21729;SDS011;11027;51.030;13.812;2023-04-15T04:02:50;3.30;;;3.10;;
21729;SDS011;11027;51.030;13.812;2023-04-15T04:05:15;3.25;;;3.05;;
21729;SDS011;11027;51.030;13.812;2023-04-15T04:07:40;3.58;;;3.28;;
21729;SDS011;11027;51.030;13.812;2023-04-15T04:10:06;4.00;;;3.65;;
21729;SDS011;11027;51.030;13.812;2023-04-15T04:12:31;4.10;;;3.80;;
21729;SDS011;11027;51.030;13.812;2023-04-15T04:14:57;3.88;;;3.58;;
21729;SDS011;11027;51.030;13.812;2023-04-15T04:17:22;4.45;;;4.05;;
21729;SDS011;11027;51.030;13.812;2023-04-15T04:19:47;3.83;;;3.53;;
21729;SDS011;11027;51.030;13.812;2023-04-15T04:22:12;3.90;;;3.60;;
21729;SDS011;11027;51.030;13.812;2023-04-15T04:24:38;3.92;;;3.40;;
21729;SDS011;11027;51.030;13.812;2023-04-15T04:27:03;3.67;;;3.38;;
21729;SDS011;11027;51.030;13.812;2023-04-15T04:29:28;3.92;;;3.63;;
21729;SDS011;11027;51.030;13.812;2023-04-15T04:31:53;3.95;;;3.65;;
21729;SDS011;11027;51.030;13.812;2023-04-15T04:34:19;3.67;;;3.38;;
21729;SDS011;11027;51.030;13.812;2023-04-15T04:36:44;4.13;;;3.83;;
21729;SDS011;11027;51.030;13.812;2023-04-15T04:39:09;4.13;;;3.83;;
21729;SDS011;11027;51.030;13.812;2023-04-15T04:41:35;4.05;;;3.75;;
21729;SDS011;11027;51.030;13.812;2023-04-15T04:44:00;3.70;;;3.40;;
21729;SDS011;11027;51.030;13.812;2023-04-15T04:46:25;3.88;;;3.53;;
21729;SDS011;11027;51.030;13.812;2023-04-15T04:48:51;3.40;;;3.20;;
21729;SDS011;11027;51.030;13.812;2023-04-15T04:51:16;3.70;;;3.40;;
21729;SDS011;11027;51.030;13.812;2023-04-15T04:53:42;3.80;;;3.50;;
21729;SDS011;11027;51.030;13.812;2023-04-15T04:56:07;3.20;;;2.90;;
21729;SDS011;11027;51.030;13.812;2023-04-15T04:58:32;3.72;;;3.42;;
21729;SDS011;11027;51.030;13.812;2023-04-15T05:00:58;4.05;;;3.65;;
21729;SDS011;11027;51.030;13.812;2023-04-15T05:03:23;3.58;;;3.28;;
21729;SDS011;11027;51.030;13.812;2023-04-15T05:05:48;3.75;;;3.42;;
21729;SDS011;11027;51.030;13.812;2023-04-15T05:08:14;3.47;;;3.15;;
21729;SDS011;11027;51.030;13.812;2023-04-15T05:10:40;2.90;;;2.70;;
21729;SDS011;11027;51.030;13.812;2023-04-15T05:13:05;3.15;;;2.95;;
21729;SDS011;11027;51.030;13.812;2023-04-15T05:15:31;2.85;;;2.65;;
21729;SDS011;11027;51.030;13.812;2023-04-15T05:17:57;3.10;;;2.88;;
21729;SDS011;11027;51.030;13.812;2023-04-15T05:20:22;2.92;;;2.72;;
21729;SDS011;11027;51.030;13.812;2023-04-15T05:22:47;2.97;;;2.78;;
21729;SDS011;11027;51.030;13.812;2023-04-15T05:25:13;3.15;;;2.95;;
21729;SDS011;11027;51.030;13.812;2023-04-15T05:27:38;3.28;;;2.97;;
21729;SDS011;11027;51.030;13.812;2023-04-15T05:30:03;3.33;;;3.03;;
21729;SDS011;11027;51.030;13.812;2023-04-15T05:32:29;2.70;;;2.50;;
21729;SDS011;11027;51.030;13.812;2023-04-15T05:34:55;2.70;;;2.50;;
21729;SDS011;11027;51.030;13.812;2023-04-15T05:37:20;3.28;;;2.88;;
21729;SDS011;11027;51.030;13.812;2023-04-15T05:39:46;2.83;;;2.55;;
21729;SDS011;11027;51.030;13.812;2023-04-15T05:42:12;2.45;;;2.25;;
21729;SDS011;11027;51.030;13.812;2023-04-15T05:44:37;2.85;;;2.40;;
21729;SDS011;11027;51.030;13.812;2023-04-15T05:47:02;3.15;;;2.38;;
21729;SDS011;11027;51.030;13.812;2023-04-15T05:49:28;3.47;;;2.22;;
21729;SDS011;11027;51.030;13.812;2023-04-15T05:51:53;2.83;;;1.83;;
21729;SDS011;11027;51.030;13.812;2023-04-15T05:54:19;1.90;;;1.80;;
21729;SDS011;11027;51.030;13.812;2023-04-15T05:56:45;2.20;;;2.00;;
21729;SDS011;11027;51.030;13.812;2023-04-15T05:59:11;2.05;;;1.88;;
21729;SDS011;11027;51.030;13.812;2023-04-15T06:01:36;1.95;;;1.80;;
21729;SDS011;11027;51.030;13.812;2023-04-15T06:04:01;1.55;;;1.40;;
21729;SDS011;11027;51.030;13.812;2023-04-15T06:06:26;1.30;;;1.20;;
21729;SDS011;11027;51.030;13.812;2023-04-15T06:08:52;1.45;;;1.35;;
21729;SDS011;11027;51.030;13.812;2023-04-15T06:11:19;1.35;;;1.00;;
21729;SDS011;11027;51.030;13.812;2023-04-15T06:13:45;2.33;;;1.58;;
21729;SDS011;11027;51.030;13.812;2023-04-15T06:16:11;7.57;;;5.47;;
21729;SDS011;11027;51.030;13.812;2023-04-15T06:18:36;1.95;;;1.58;;
21729;SDS011;11027;51.030;13.812;2023-04-15T06:21:01;1.20;;;1.10;;
21729;SDS011;11027;51.030;13.812;2023-04-15T06:23:27;1.00;;;0.90;;
21729;SDS011;11027;51.030;13.812;2023-04-15T06:25:52;1.05;;;0.73;;
21729;SDS011;11027;51.030;13.812;2023-04-15T06:28:17;0.73;;;0.73;;
21729;SDS011;11027;51.030;13.812;2023-04-15T06:30:42;1.05;;;0.80;;
21729;SDS011;11027;51.030;13.812;2023-04-15T06:33:08;1.02;;;0.85;;
21729;SDS011;11027;51.030;13.812;2023-04-15T06:35:34;2.05;;;0.98;;
21729;SDS011;11027;51.030;13.812;2023-04-15T06:38:00;1.17;;;0.90;;
21729;SDS011;11027;51.030;13.812;2023-04-15T06:40:25;0.90;;;0.90;;
21729;SDS011;11027;51.030;13.812;2023-04-15T06:42:50;0.80;;;0.75;;
21729;SDS011;11027;51.030;13.812;2023-04-15T06:45:15;1.10;;;1.00;;
21729;SDS011;11027;51.030;13.812;2023-04-15T06:47:41;0.82;;;0.82;;
21729;SDS011;11027;51.030;13.812;2023-04-15T06:50:07;1.02;;;0.77;;
21729;SDS011;11027;51.030;13.812;2023-04-15T06:52:33;0.80;;;0.80;;
21729;SDS011;11027;51.030;13.812;2023-04-15T06:54:59;0.85;;;0.85;;
21729;SDS011;11027;51.030;13.812;2023-04-15T06:57:25;1.63;;;0.88;;
21729;SDS011;11027;51.030;13.812;2023-04-15T06:59:52;2.00;;;1.05;;
21729;SDS011;11027;51.030;13.812;2023-04-15T07:02:18;2.30;;;0.68;;
21729;SDS011;11027;51.030;13.812;2023-04-15T07:04:44;1.88;;;0.70;;
21729;SDS011;11027;51.030;13.812;2023-04-15T07:07:09;1.83;;;0.80;;
21729;SDS011;11027;51.030;13.812;2023-04-15T07:09:34;1.20;;;1.00;;
21729;SDS011;11027;51.030;13.812;2023-04-15T07:12:00;2.22;;;0.98;;
21729;SDS011;11027;51.030;13.812;2023-04-15T07:14:25;0.80;;;0.80;;
21729;SDS011;11027;51.030;13.812;2023-04-15T07:16:50;2.63;;;0.82;;
21729;SDS011;11027;51.030;13.812;2023-04-15T07:19:15;1.38;;;0.47;;
21729;SDS011;11027;51.030;13.812;2023-04-15T07:21:41;1.23;;;0.60;;
21729;SDS011;11027;51.030;13.812;2023-04-15T07:24:06;2.03;;;0.60;;
21729;SDS011;11027;51.030;13.812;2023-04-15T07:26:31;4.43;;;0.70;;
21729;SDS011;11027;51.030;13.812;2023-04-15T07:28:57;1.90;;;0.70;;
21729;SDS011;11027;51.030;13.812;2023-04-15T07:31:22;2.15;;;0.98;;
21729;SDS011;11027;51.030;13.812;2023-04-15T07:33:47;2.25;;;0.60;;
21729;SDS011;11027;51.030;13.812;2023-04-15T07:36:12;1.13;;;0.60;;
21729;SDS011;11027;51.030;13.812;2023-04-15T07:38:38;2.55;;;0.75;;
21729;SDS011;11027;51.030;13.812;2023-04-15T07:41:03;2.90;;;0.70;;
21729;SDS011;11027;51.030;13.812;2023-04-15T07:43:29;0.47;;;0.47;;
21729;SDS011;11027;51.030;13.812;2023-04-15T07:45:54;0.85;;;0.43;;
21729;SDS011;11027;51.030;13.812;2023-04-15T07:48:19;1.10;;;0.80;;
21729;SDS011;11027;51.030;13.812;2023-04-15T07:50:45;1.38;;;0.60;;
21729;SDS011;11027;51.030;13.812;2023-04-15T07:53:10;0.70;;;0.70;;
21729;SDS011;11027;51.030;13.812;2023-04-15T07:55:35;1.38;;;1.00;;
21729;SDS011;11027;51.030;13.812;2023-04-15T07:58:01;1.17;;;0.77;;
21729;SDS011;11027;51.030;13.812;2023-04-15T08:00:26;0.50;;;0.50;;
21729;SDS011;11027;51.030;13.812;2023-04-15T08:02:52;4.30;;;0.88;;
21729;SDS011;11027;51.030;13.812;2023-04-15T08:05:18;1.02;;;0.80;;
21729;SDS011;11027;51.030;13.812;2023-04-15T08:07:43;1.17;;;1.00;;
21729;SDS011;11027;51.030;13.812;2023-04-15T08:10:09;0.73;;;0.73;;
21729;SDS011;11027;51.030;13.812;2023-04-15T08:12:35;1.60;;;0.90;;
21729;SDS011;11027;51.030;13.812;2023-04-15T08:15:01;0.80;;;0.80;;
21729;SDS011;11027;51.030;13.812;2023-04-15T08:17:26;1.65;;;1.20;;
21729;SDS011;11027;51.030;13.812;2023-04-15T08:19:52;1.17;;;0.80;;
21729;SDS011;11027;51.030;13.812;2023-04-15T08:22:17;1.00;;;0.90;;
21729;SDS011;11027;51.030;13.812;2023-04-15T08:24:43;1.10;;;1.00;;
21729;SDS011;11027;51.030;13.812;2023-04-15T08:27:08;1.48;;;1.00;;
21729;SDS011;11027;51.030;13.812;2023-04-15T08:29:34;1.52;;;1.33;;
21729;SDS011;11027;51.030;13.812;2023-04-15T08:31:59;1.10;;;1.00;;
21729;SDS011;11027;51.030;13.812;2023-04-15T08:34:25;1.30;;;1.17;;
21729;SDS011;11027;51.030;13.812;2023-04-15T08:36:51;1.65;;;1.33;;
21729;SDS011;11027;51.030;13.812;2023-04-15T08:39:16;1.30;;;1.20;;
21729;SDS011;11027;51.030;13.812;2023-04-15T08:41:46;1.98;;;1.10;;
21729;SDS011;11027;51.030;13.812;2023-04-15T08:44:15;1.70;;;1.60;;
21729;SDS011;11027;51.030;13.812;2023-04-15T08:46:41;2.20;;;1.90;;
21729;SDS011;11027;51.030;13.812;2023-04-15T08:49:10;1.98;;;1.88;;
21729;SDS011;11027;51.030;13.812;2023-04-15T08:51:39;2.65;;;2.22;;
21729;SDS011;11027;51.030;13.812;2023-04-15T08:54:05;2.30;;;2.13;;
21729;SDS011;11027;51.030;13.812;2023-04-15T08:56:32;2.30;;;2.10;;
21729;SDS011;11027;51.030;13.812;2023-04-15T08:58:58;2.33;;;2.10;;
21729;SDS011;11027;51.030;13.812;2023-04-15T09:01:24;3.30;;;2.80;;
21729;SDS011;11027;51.030;13.812;2023-04-15T09:03:50;3.03;;;2.72;;
21729;SDS011;11027;51.030;13.812;2023-04-15T09:06:17;2.47;;;2.28;;
21729;SDS011;11027;51.030;13.812;2023-04-15T09:08:43;2.50;;;2.28;;
21729;SDS011;11027;51.030;13.812;2023-04-15T09:11:08;2.40;;;2.20;;
21729;SDS011;11027;51.030;13.812;2023-04-15T09:13:34;2.70;;;2.50;;
21729;SDS011;11027;51.030;13.812;2023-04-15T09:16:02;4.97;;;2.67;;
21729;SDS011;11027;51.030;13.812;2023-04-15T09:18:30;2.45;;;2.25;;
21729;SDS011;11027;51.030;13.812;2023-04-15T09:21:03;2.50;;;2.30;;
21729;SDS011;11027;51.030;13.812;2023-04-15T09:23:37;3.60;;;2.38;;
21729;SDS011;11027;51.030;13.812;2023-04-15T09:26:05;2.22;;;2.03;;
21729;SDS011;11027;51.030;13.812;2023-04-15T09:28:30;3.42;;;2.30;;
21729;SDS011;11027;51.030;13.812;2023-04-15T09:30:59;4.00;;;2.15;;
21729;SDS011;11027;51.030;13.812;2023-04-15T09:33:27;2.50;;;2.30;;
21729;SDS011;11027;51.030;13.812;2023-04-15T09:36:03;2.47;;;2.17;;
21729;SDS011;11027;51.030;13.812;2023-04-15T09:38:29;2.55;;;2.33;;
21729;SDS011;11027;51.030;13.812;2023-04-15T09:40:55;3.63;;;2.22;;
21729;SDS011;11027;51.030;13.812;2023-04-15T09:43:22;2.33;;;2.20;;
21729;SDS011;11027;51.030;13.812;2023-04-15T09:45:48;2.42;;;2.22;;
21729;SDS011;11027;51.030;13.812;2023-04-15T09:48:16;2.10;;;1.90;;
21729;SDS011;11027;51.030;13.812;2023-04-15T09:50:44;2.25;;;2.00;;
21729;SDS011;11027;51.030;13.812;2023-04-15T09:53:10;2.40;;;2.20;;
21729;SDS011;11027;51.030;13.812;2023-04-15T09:55:53;2.28;;;2.08;;
21729;SDS011;11027;51.030;13.812;2023-04-15T09:58:21;7.82;;;5.60;;
21729;SDS011;11027;51.030;13.812;2023-04-15T10:00:47;3.78;;;3.45;;
21729;SDS011;11027;51.030;13.812;2023-04-15T10:03:21;2.20;;;2.00;;
21729;SDS011;11027;51.030;13.812;2023-04-15T10:05:48;2.80;;;2.17;;
21729;SDS011;11027;51.030;13.812;2023-04-15T10:08:16;1.95;;;1.85;;
21729;SDS011;11027;51.030;13.812;2023-04-15T10:10:43;3.58;;;2.10;;
21729;SDS011;11027;51.030;13.812;2023-04-15T10:13:11;2.30;;;2.10;;
21729;SDS011;11027;51.030;13.812;2023-04-15T10:15:38;2.33;;;2.10;;
21729;SDS011;11027;51.030;13.812;2023-04-15T10:18:07;2.33;;;2.13;;
21729;SDS011;11027;51.030;13.812;2023-04-15T10:20:33;2.67;;;2.10;;
21729;SDS011;11027;51.030;13.812;2023-04-15T10:23:00;3.35;;;2.65;;
21729;SDS011;11027;51.030;13.812;2023-04-15T10:25:26;3.55;;;2.10;;
21729;SDS011;11027;51.030;13.812;2023-04-15T10:27:53;2.47;;;2.28;;
21729;SDS011;11027;51.030;13.812;2023-04-15T10:30:20;2.83;;;2.60;;
21729;SDS011;11027;51.030;13.812;2023-04-15T10:32:46;2.33;;;2.13;;
21729;SDS011;11027;51.030;13.812;2023-04-15T10:35:12;2.45;;;2.25;;
21729;SDS011;11027;51.030;13.812;2023-04-15T10:37:38;2.85;;;2.60;;
21729;SDS011;11027;51.030;13.812;2023-04-15T10:42:48;3.30;;;2.97;;
21729;SDS011;11027;51.030;13.812;2023-04-15T10:45:17;3.13;;;2.38;;
21729;SDS011;11027;51.030;13.812;2023-04-15T10:47:43;2.47;;;2.28;;
21729;SDS011;11027;51.030;13.812;2023-04-15T10:50:08;2.72;;;2.53;;
21729;SDS011;11027;51.030;13.812;2023-04-15T10:52:34;2.70;;;2.50;;
21729;SDS011;11027;51.030;13.812;2023-04-15T10:55:11;2.63;;;2.40;;
21729;SDS011;11027;51.030;13.812;2023-04-15T10:57:41;3.35;;;3.00;;
21729;SDS011;11027;51.030;13.812;2023-04-15T11:00:09;3.03;;;2.60;;
21729;SDS011;11027;51.030;13.812;2023-04-15T11:05:09;3.35;;;2.47;;
21729;SDS011;11027;51.030;13.812;2023-04-15T11:07:39;2.42;;;2.10;;
21729;SDS011;11027;51.030;13.812;2023-04-15T11:12:45;1.75;;;1.65;;
21729;SDS011;11027;51.030;13.812;2023-04-15T11:15:24;2.00;;;1.80;;
21729;SDS011;11027;51.030;13.812;2023-04-15T11:17:51;1.75;;;1.65;;
21729;SDS011;11027;51.030;13.812;2023-04-15T11:20:17;2.38;;;1.52;;
21729;SDS011;11027;51.030;13.812;2023-04-15T11:22:46;3.00;;;1.50;;
21729;SDS011;11027;51.030;13.812;2023-04-15T11:25:21;2.92;;;1.60;;
21729;SDS011;11027;51.030;13.812;2023-04-15T11:27:47;2.65;;;1.80;;
21729;SDS011;11027;51.030;13.812;2023-04-15T11:30:21;1.75;;;1.65;;
21729;SDS011;11027;51.030;13.812;2023-04-15T11:32:48;1.30;;;1.20;;
21729;SDS011;11027;51.030;13.812;2023-04-15T11:35:19;1.50;;;1.40;;
21729;SDS011;11027;51.030;13.812;2023-04-15T11:37:45;2.50;;;1.35;;
21729;SDS011;11027;51.030;13.812;2023-04-15T11:40:10;2.75;;;1.20;;
21729;SDS011;11027;51.030;13.812;2023-04-15T11:42:36;1.55;;;1.40;;
21729;SDS011;11027;51.030;13.812;2023-04-15T11:45:11;1.92;;;1.15;;
21729;SDS011;11027;51.030;13.812;2023-04-15T11:47:38;3.80;;;3.47;;
21729;SDS011;11027;51.030;13.812;2023-04-15T11:50:15;1.75;;;1.48;;
21729;SDS011;11027;51.030;13.812;2023-04-15T11:53:00;1.42;;;1.08;;
21729;SDS011;11027;51.030;13.812;2023-04-15T11:55:27;2.55;;;1.05;;
21729;SDS011;11027;51.030;13.812;2023-04-15T11:58:07;1.20;;;1.10;;
21729;SDS011;11027;51.030;13.812;2023-04-15T12:00:35;1.35;;;1.20;;
21729;SDS011;11027;51.030;13.812;2023-04-15T12:03:11;1.10;;;1.00;;
21729;SDS011;11027;51.030;13.812;2023-04-15T12:06:01;1.15;;;1.05;;
21729;SDS011;11027;51.030;13.812;2023-04-15T12:11:13;1.95;;;1.10;;
21729;SDS011;11027;51.030;13.812;2023-04-15T12:13:42;2.30;;;1.30;;
21729;SDS011;11027;51.030;13.812;2023-04-15T12:16:08;1.55;;;1.45;;
21729;SDS011;11027;51.030;13.812;2023-04-15T12:18:36;1.73;;;1.35;;
21729;SDS011;11027;51.030;13.812;2023-04-15T12:21:11;3.45;;;1.10;;
21729;SDS011;11027;51.030;13.812;2023-04-15T12:23:37;1.67;;;1.00;;
21729;SDS011;11027;51.030;13.812;2023-04-15T12:26:06;3.28;;;1.00;;
21729;SDS011;11027;51.030;13.812;2023-04-15T12:28:33;1.00;;;0.88;;
21729;SDS011;11027;51.030;13.812;2023-04-15T12:31:05;1.05;;;0.90;;
21729;SDS011;11027;51.030;13.812;2023-04-15T12:33:32;1.13;;;0.87;;
21729;SDS011;11027;51.030;13.812;2023-04-15T12:35:57;0.95;;;0.93;;
21729;SDS011;11027;51.030;13.812;2023-04-15T12:38:23;1.13;;;0.88;;
21729;SDS011;11027;51.030;13.812;2023-04-15T12:40:48;1.15;;;0.95;;
21729;SDS011;11027;51.030;13.812;2023-04-15T12:43:13;1.02;;;0.90;;
21729;SDS011;11027;51.030;13.812;2023-04-15T12:45:39;1.25;;;0.98;;
21729;SDS011;11027;51.030;13.812;2023-04-15T12:48:04;0.80;;;0.80;;
21729;SDS011;11027;51.030;13.812;2023-04-15T12:50:29;1.17;;;0.93;;
21729;SDS011;11027;51.030;13.812;2023-04-15T12:52:55;1.25;;;1.10;;
21729;SDS011;11027;51.030;13.812;2023-04-15T12:55:20;1.27;;;1.10;;
21729;SDS011;11027;51.030;13.812;2023-04-15T12:57:45;3.75;;;1.25;;
21729;SDS011;11027;51.030;13.812;2023-04-15T13:00:11;1.80;;;1.13;;
21729;SDS011;11027;51.030;13.812;2023-04-15T13:02:37;1.02;;;0.85;;
21729;SDS011;11027;51.030;13.812;2023-04-15T13:05:02;1.10;;;1.00;;
21729;SDS011;11027;51.030;13.812;2023-04-15T13:07:27;3.45;;;1.00;;
21729;SDS011;11027;51.030;13.812;2023-04-15T13:09:53;1.50;;;1.23;;
21729;SDS011;11027;51.030;13.812;2023-04-15T13:12:18;3.30;;;1.10;;
21729;SDS011;11027;51.030;13.812;2023-04-15T13:14:43;1.17;;;1.08;;
21729;SDS011;11027;51.030;13.812;2023-04-15T13:17:09;1.13;;;1.00;;
21729;SDS011;11027;51.030;13.812;2023-04-15T13:19:35;1.13;;;1.02;;
21729;SDS011;11027;51.030;13.812;2023-04-15T13:22:01;1.42;;;0.90;;
21729;SDS011;11027;51.030;13.812;2023-04-15T13:24:26;1.70;;;1.10;;
21729;SDS011;11027;51.030;13.812;2023-04-15T13:26:51;2.80;;;1.13;;
21729;SDS011;11027;51.030;13.812;2023-04-15T13:29:17;1.10;;;1.00;;
21729;SDS011;11027;51.030;13.812;2023-04-15T13:31:42;1.38;;;1.10;;
21729;SDS011;11027;51.030;13.812;2023-04-15T13:34:08;1.45;;;1.02;;
21729;SDS011;11027;51.030;13.812;2023-04-15T13:36:33;1.33;;;1.23;;
21729;SDS011;11027;51.030;13.812;2023-04-15T13:38:58;3.80;;;1.20;;
21729;SDS011;11027;51.030;13.812;2023-04-15T13:41:23;1.88;;;1.08;;
21729;SDS011;11027;51.030;13.812;2023-04-15T13:43:49;1.52;;;1.20;;
21729;SDS011;11027;51.030;13.812;2023-04-15T13:46:15;1.85;;;1.10;;
21729;SDS011;11027;51.030;13.812;2023-04-15T13:48:40;1.30;;;1.20;;
21729;SDS011;11027;51.030;13.812;2023-04-15T13:51:05;1.67;;;1.23;;
21729;SDS011;11027;51.030;13.812;2023-04-15T13:53:31;1.45;;;0.90;;
21729;SDS011;11027;51.030;13.812;2023-04-15T13:55:57;1.13;;;0.90;;
21729;SDS011;11027;51.030;13.812;2023-04-15T13:58:22;1.65;;;1.10;;
21729;SDS011;11027;51.030;13.812;2023-04-15T14:00:48;0.85;;;0.82;;
21729;SDS011;11027;51.030;13.812;2023-04-15T14:03:13;1.45;;;1.05;;
21729;SDS011;11027;51.030;13.812;2023-04-15T14:05:38;1.52;;;1.00;;
21729;SDS011;11027;51.030;13.812;2023-04-15T14:08:04;1.13;;;1.02;;
21729;SDS011;11027;51.030;13.812;2023-04-15T14:10:29;1.42;;;1.33;;
21729;SDS011;11027;51.030;13.812;2023-04-15T14:12:54;1.35;;;1.02;;
21729;SDS011;11027;51.030;13.812;2023-04-15T14:15:20;1.38;;;1.02;;
21729;SDS011;11027;51.030;13.812;2023-04-15T14:17:45;1.77;;;1.30;;
21729;SDS011;11027;51.030;13.812;2023-04-15T14:20:10;1.20;;;1.10;;
21729;SDS011;11027;51.030;13.812;2023-04-15T14:22:35;1.40;;;1.20;;
21729;SDS011;11027;51.030;13.812;2023-04-15T14:25:01;1.10;;;1.00;;
21729;SDS011;11027;51.030;13.812;2023-04-15T14:27:27;2.00;;;1.30;;
21729;SDS011;11027;51.030;13.812;2023-04-15T14:29:52;3.13;;;1.40;;
21729;SDS011;11027;51.030;13.812;2023-04-15T14:32:18;1.30;;;1.08;;
21729;SDS011;11027;51.030;13.812;2023-04-15T14:34:43;1.00;;;0.90;;
21729;SDS011;11027;51.030;13.812;2023-04-15T14:37:08;1.00;;;0.90;;
21729;SDS011;11027;51.030;13.812;2023-04-15T14:39:34;1.23;;;1.00;;